Terminal Aerodrome Forecast
Issued by NWS

Home | Current Version | Previous Version | Text Only | Print | Product List | Glossary On
Versions: 1 2 3 4 5 6 7 8 9 10 11 12 13 14 15 16 17 18
000
FTUS43 KMQT 281733
TAFIWD
TAF
KIWD 281733Z 2818/2918 17010G16KT P6SM SCT020 OVC070
     FM290000 17006KT P6SM BKN020
     FM290400 19004KT 6SM -SN OVC015
     FM290800 27006KT 3SM -FZDZSN BR OVC004
     FM291100 30010G17KT 3SM -FZDZSN BR OVC006
     FM291300 31015G23KT 5SM -SHSN OVC012
      AMD LTD TO CLD VIS AND WIND=

USA.gov is the U.S. government's official web portal to all federal, state and local government web resources and services.